Time;durP1;ratioP1;P1;durP2;ratioP2;P2;SDS_P1;SDS_P2;PMS_P1;PMS_P2;Temp;Humidity;BMP_temperature;BMP_pressure;BME280_temperature;BME280_humidity;BME280_pressure;Samples;Min_cycle;Max_cycle;Signal;HPM_P1;HPM_P2
2022/10/14 00:00:42;;;;;;;18.45;13.63;;;15.50;99.90;;;;;;2089255;28;20048;-71
2022/10/14 00:01:43;;;;;;;18.73;14.65;;;15.50;99.90;;;;;;2089419;28;20078;-71
2022/10/14 00:02:43;;;;;;;22.05;16.27;;;15.50;99.90;;;;;;2090820;28;20578;-71
2022/10/14 00:03:44;;;;;;;17.33;13.82;;;15.50;99.90;;;;;;2088931;28;20370;-71
2022/10/14 00:04:45;;;;;;;16.33;14.63;;;15.50;99.90;;;;;;2091029;28;20053;-71
2022/10/14 00:05:45;;;;;;;18.90;14.90;;;15.50;99.90;;;;;;2088864;28;20028;-71
2022/10/14 00:06:46;;;;;;;19.08;15.93;;;15.50;99.90;;;;;;2090184;28;20032;-71
2022/10/14 00:07:46;;;;;;;20.65;15.40;;;15.50;99.90;;;;;;2090988;28;20025;-71
2022/10/14 00:08:47;;;;;;;18.60;14.73;;;15.50;99.90;;;;;;2090274;28;20037;-71
2022/10/14 00:09:47;;;;;;;19.00;14.35;;;15.50;99.90;;;;;;2089934;28;20036;-71
2022/10/14 00:10:48;;;;;;;19.10;15.05;;;15.50;99.90;;;;;;2091286;28;20231;-71
2022/10/14 00:11:49;;;;;;;17.50;13.10;;;15.50;99.90;;;;;;2090653;28;20032;-71
2022/10/14 00:12:49;;;;;;;20.15;13.52;;;15.60;99.90;;;;;;2090637;28;20627;-71
2022/10/14 00:13:53;;;;;;;17.75;14.00;;;15.50;99.90;;;;;;2088012;28;20029;-71
2022/10/14 00:14:54;;;;;;;17.48;14.82;;;15.60;99.90;;;;;;2091497;28;20028;-71
2022/10/14 00:15:55;;;;;;;18.48;14.07;;;15.50;99.90;;;;;;2088562;28;20051;-71
2022/10/14 00:16:55;;;;;;;21.05;14.38;;;15.60;99.90;;;;;;2092010;28;20128;-71
2022/10/14 00:17:56;;;;;;;18.85;14.82;;;15.60;99.90;;;;;;2091162;28;20036;-71
2022/10/14 00:18:58;;;;;;;18.27;15.05;;;15.60;99.90;;;;;;2088778;28;20024;-71
2022/10/14 00:19:59;;;;;;;17.75;15.15;;;15.60;99.90;;;;;;2090807;28;20024;-71
2022/10/14 00:21:02;;;;;;;19.70;15.10;;;15.60;99.90;;;;;;2088837;28;20025;-71
2022/10/14 00:22:02;;;;;;;18.58;15.75;;;15.60;99.90;;;;;;2092807;28;20021;-71
2022/10/14 00:23:03;;;;;;;19.92;15.27;;;15.60;99.90;;;;;;2089967;28;20017;-71
2022/10/14 00:24:04;;;;;;;18.55;14.35;;;15.60;99.90;;;;;;2091579;28;20033;-71
2022/10/14 00:25:05;;;;;;;22.08;14.88;;;15.60;99.90;;;;;;2091431;28;20410;-71
2022/10/14 00:26:05;;;;;;;20.25;15.27;;;15.60;99.90;;;;;;2089906;28;20195;-71
2022/10/14 00:27:06;;;;;;;19.45;16.30;;;15.60;99.90;;;;;;2091977;28;20085;-71
2022/10/14 00:28:06;;;;;;;18.40;15.60;;;15.60;99.90;;;;;;2090017;28;20097;-71
2022/10/14 00:29:12;;;;;;;19.38;15.68;;;15.60;99.90;;;;;;2091812;28;20509;-71
2022/10/14 00:30:12;;;;;;;22.77;15.50;;;15.60;99.90;;;;;;2089775;28;20020;-71
2022/10/14 00:31:14;;;;;;;19.52;15.38;;;15.60;99.90;;;;;;2091057;28;20029;-71
2022/10/14 00:32:14;;;;;;;22.48;16.33;;;15.60;99.90;;;;;;2089654;28;20029;-71
2022/10/14 00:33:15;;;;;;;21.45;16.40;;;15.60;99.90;;;;;;2089229;28;20033;-71
2022/10/14 00:34:16;;;;;;;19.50;14.63;;;15.60;99.90;;;;;;2090102;28;20025;-71
2022/10/14 00:35:16;;;;;;;21.73;15.52;;;15.60;99.90;;;;;;2090806;28;20509;-71
2022/10/14 00:36:19;;;;;;;19.05;15.70;;;15.50;99.90;;;;;;2089673;28;20048;-71
2022/10/14 00:37:20;;;;;;;21.00;15.75;;;15.50;99.90;;;;;;2089760;28;20099;-71
2022/10/14 00:38:20;;;;;;;19.17;16.02;;;15.50;99.90;;;;;;2090539;28;20016;-71
2022/10/14 00:39:21;;;;;;;21.75;16.40;;;15.50;99.90;;;;;;2090631;28;20047;-71
2022/10/14 00:40:22;;;;;;;20.58;15.50;;;15.50;99.90;;;;;;2089247;28;20021;-71
2022/10/14 00:41:28;;;;;;;19.50;15.82;;;15.50;99.90;;;;;;2089363;28;20039;-71
2022/10/14 00:42:32;;;;;;;18.85;15.50;;;15.50;99.90;;;;;;2090320;28;20028;-71
2022/10/14 00:43:55;;;;;;;20.23;15.95;;;15.50;99.90;;;;;;2088102;28;20078;-72
2022/10/14 00:45:05;;;;;;;17.73;14.88;;;15.50;99.90;;;;;;2089098;28;20400;-71
2022/10/14 00:46:10;;;;;;;18.90;14.45;;;15.50;99.90;;;;;;2090088;28;20037;-71
2022/10/14 00:47:11;;;;;;;18.08;14.23;;;15.50;99.90;;;;;;2093562;28;20029;-71
2022/10/14 00:48:12;;;;;;;18.02;13.95;;;15.50;99.90;;;;;;2094846;28;20020;-71
2022/10/14 00:49:23;;;;;;;20.40;14.45;;;15.50;99.90;;;;;;2091988;28;20021;-71
2022/10/14 00:50:24;;;;;;;18.15;14.88;;;15.50;99.90;;;;;;2090446;28;20078;-71
2022/10/14 00:51:25;;;;;;;16.40;13.32;;;15.50;99.90;;;;;;2090017;28;20751;-71
2022/10/14 00:52:26;;;;;;;15.35;13.38;;;15.50;99.90;;;;;;2089969;28;20098;-72
2022/10/14 00:53:26;;;;;;;16.15;13.90;;;15.50;99.90;;;;;;2089349;28;20571;-72
2022/10/14 00:54:39;;;;;;;15.88;13.65;;;15.50;99.90;;;;;;2090903;28;20400;-71
2022/10/14 00:55:41;;;;;;;18.92;14.35;;;15.50;99.90;;;;;;2090137;28;20135;-71
2022/10/14 00:56:44;;;;;;;14.88;12.68;;;15.50;99.90;;;;;;2088517;28;20163;-71
2022/10/14 00:57:45;;;;;;;17.27;13.50;;;15.50;99.90;;;;;;2090334;28;20491;-71
2022/10/14 00:58:45;;;;;;;18.48;14.10;;;15.50;99.90;;;;;;2090467;28;20668;-71
2022/10/14 00:59:46;;;;;;;15.57;12.48;;;15.50;99.90;;;;;;2090127;28;20020;-71
2022/10/14 01:00:47;;;;;;;16.33;13.13;;;15.50;99.90;;;;;;2090275;28;20029;-71
2022/10/14 01:01:47;;;;;;;17.20;13.65;;;15.50;99.90;;;;;;2092187;28;20058;-71
2022/10/14 01:02:48;;;;;;;15.90;12.52;;;15.50;99.90;;;;;;2094011;28;20032;-71
2022/10/14 01:03:49;;;;;;;14.85;13.18;;;15.50;99.90;;;;;;2091417;28;20032;-71
2022/10/14 01:04:49;;;;;;;15.40;12.70;;;15.50;99.90;;;;;;2089618;28;20123;-71
2022/10/14 01:06:22;;;;;;;15.82;13.55;;;15.50;99.90;;;;;;2089838;28;20028;-71
2022/10/14 01:07:34;;;;;;;16.40;14.25;;;15.50;99.90;;;;;;2068528;28;20046;-71
2022/10/14 01:08:48;;;;;;;13.40;12.00;;;15.50;99.90;;;;;;2093490;28;20025;-71
2022/10/14 01:10:10;;;;;;;17.33;12.82;;;15.50;99.90;;;;;;2089709;28;20038;-71
2022/10/14 01:11:19;;;;;;;17.88;12.93;;;15.50;99.90;;;;;;2088237;28;20032;-71
2022/10/14 01:12:46;;;;;;;17.00;13.73;;;15.50;99.90;;;;;;2091771;28;20138;-71
2022/10/14 01:14:23;;;;;;;17.58;13.57;;;15.50;99.90;;;;;;2091547;28;20477;-71
2022/10/14 01:15:39;;;;;;;20.23;13.10;;;15.50;99.90;;;;;;2077001;28;20046;-71
2022/10/14 01:16:57;;;;;;;18.35;14.13;;;15.50;99.90;;;;;;2088368;28;20021;-71
2022/10/14 01:18:35;;;;;;;16.48;13.88;;;15.50;99.90;;;;;;2088967;28;20566;-71
2022/10/14 01:20:10;;;;;;;15.75;13.88;;;15.50;99.90;;;;;;2091081;28;20017;-71
2022/10/14 01:21:44;;;;;;;19.02;14.43;;;15.50;99.90;;;;;;2089547;28;20025;-71
2022/10/14 01:23:22;;;;;;;16.92;14.05;;;15.40;99.90;;;;;;2089123;28;20059;-71
2022/10/14 01:24:28;;;;;;;16.35;13.98;;;15.40;99.90;;;;;;2090421;28;20024;-71
2022/10/14 01:26:08;;;;;;;19.55;13.88;;;15.40;99.90;;;;;;2089739;28;20337;-71
2022/10/14 01:27:30;;;;;;;15.73;14.00;;;15.40;99.90;;;;;;2067976;28;20070;-71
2022/10/14 01:28:53;;;;;;;18.50;15.57;;;15.40;99.90;;;;;;2090725;28;20475;-71
2022/10/14 01:30:06;;;;;;;19.92;14.38;;;15.40;99.90;;;;;;2089571;28;20048;-71
2022/10/14 01:31:12;;;;;;;20.63;15.40;;;15.40;99.90;;;;;;2090682;28;20044;-71
2022/10/14 01:32:18;;;;;;;20.23;15.15;;;15.40;99.90;;;;;;2091988;28;20029;-71
2022/10/14 01:33:23;;;;;;;15.07;13.48;;;15.40;99.90;;;;;;2090055;28;20021;-71
2022/10/14 01:34:31;;;;;;;16.17;13.93;;;15.40;99.90;;;;;;2090588;28;20013;-71
2022/10/14 01:36:14;;;;;;;22.30;14.77;;;15.50;99.90;;;;;;2088562;28;20040;-71
2022/10/14 01:37:20;;;;;;;21.33;15.63;;;15.50;99.90;;;;;;2090831;28;20013;-71
2022/10/14 01:38:34;;;;;;;15.43;13.52;;;15.50;99.90;;;;;;2090816;28;20048;-71
2022/10/14 01:39:43;;;;;;;16.38;14.65;;;15.40;99.90;;;;;;2090621;28;20020;-71
2022/10/14 01:40:54;;;;;;;17.80;14.65;;;15.40;99.90;;;;;;2088242;28;20174;-71
2022/10/14 01:42:10;;;;;;;16.73;14.50;;;15.50;99.90;;;;;;2088048;28;20021;-71
2022/10/14 01:43:12;;;;;;;23.45;15.88;;;15.50;99.90;;;;;;2091241;28;20128;-71
2022/10/14 01:44:16;;;;;;;21.90;16.45;;;15.50;99.90;;;;;;2089240;28;20021;-71
2022/10/14 01:45:19;;;;;;;23.13;16.63;;;15.50;99.90;;;;;;2089961;28;20485;-71
2022/10/14 01:46:24;;;;;;;18.20;15.05;;;15.50;99.90;;;;;;2090106;28;20661;-71
2022/10/14 01:47:29;;;;;;;17.48;15.68;;;15.50;99.90;;;;;;2091182;28;20032;-71
2022/10/14 01:48:35;;;;;;;19.38;17.08;;;15.50;99.90;;;;;;2092287;28;20056;-71
2022/10/14 01:49:44;;;;;;;23.20;16.90;;;15.50;99.90;;;;;;2092682;28;20482;-71
2022/10/14 01:50:48;;;;;;;16.75;14.82;;;15.50;99.90;;;;;;2090307;28;20051;-71
2022/10/14 01:51:56;;;;;;;20.77;17.50;;;15.50;99.90;;;;;;2092032;28;20409;-72
2022/10/14 01:53:27;;;;;;;19.77;16.42;;;15.50;99.90;;;;;;2091623;28;20799;-72
2022/10/14 01:54:37;;;;;;;19.83;15.85;;;15.50;99.90;;;;;;2092047;28;20965;-71
2022/10/14 01:55:43;;;;;;;20.67;14.50;;;15.50;99.90;;;;;;2090030;28;20029;-71
2022/10/14 01:56:46;;;;;;;21.88;17.73;;;15.50;99.90;;;;;;2091379;28;20053;-71
2022/10/14 01:57:50;;;;;;;19.23;17.23;;;15.50;99.90;;;;;;2090658;28;20067;-71
2022/10/14 01:58:51;;;;;;;16.83;14.60;;;15.50;99.90;;;;;;2091888;28;20051;-72
2022/10/14 01:59:54;;;;;;;19.60;15.68;;;15.50;99.90;;;;;;2089896;28;20025;-72
2022/10/14 02:00:55;;;;;;;18.40;16.17;;;15.50;99.90;;;;;;2090988;28;20033;-71
2022/10/14 02:01:56;;;;;;;19.88;16.20;;;15.50;99.90;;;;;;2092719;28;20072;-71
2022/10/14 02:02:56;;;;;;;20.05;16.88;;;15.50;99.90;;;;;;2092270;28;20028;-72
2022/10/14 02:03:57;;;;;;;19.23;16.10;;;15.50;99.90;;;;;;2092341;28;20109;-72
2022/10/14 02:04:57;;;;;;;18.35;16.20;;;15.50;99.90;;;;;;2090619;28;20040;-72
2022/10/14 02:06:04;;;;;;;19.75;16.58;;;15.50;99.90;;;;;;2090773;28;20072;-71
2022/10/14 02:07:14;;;;;;;19.40;16.27;;;15.50;99.90;;;;;;2092515;28;20041;-72
2022/10/14 02:08:57;;;;;;;17.00;14.88;;;15.50;99.90;;;;;;2090502;28;20039;-72
2022/10/14 02:10:23;;;;;;;15.85;14.27;;;15.50;99.90;;;;;;2092612;28;20155;-71
2022/10/14 02:11:24;;;;;;;16.10;13.48;;;15.50;99.90;;;;;;2092508;28;20118;-72
2022/10/14 02:12:38;;;;;;;17.00;15.20;;;15.50;99.90;;;;;;2091132;28;20067;-72
2022/10/14 02:14:03;;;;;;;16.58;12.98;;;15.50;99.90;;;;;;2094073;28;20055;-72
2022/10/14 02:15:23;;;;;;;21.55;14.50;;;15.50;99.90;;;;;;2092080;28;20060;-72
2022/10/14 02:16:53;;;;;;;18.30;16.23;;;15.50;99.90;;;;;;2089944;28;20017;-72
2022/10/14 02:18:06;;;;;;;16.05;14.32;;;15.50;99.90;;;;;;2091229;28;20028;-72
2022/10/14 02:19:32;;;;;;;18.40;15.43;;;15.50;99.90;;;;;;2090657;28;20029;-72
2022/10/14 02:20:44;;;;;;;19.25;16.08;;;15.50;99.90;;;;;;2091139;28;20028;-72
2022/10/14 02:22:04;;;;;;;23.02;17.80;;;15.50;99.90;;;;;;2091693;28;20017;-72
2022/10/14 02:23:23;;;;;;;17.67;15.77;;;15.40;99.90;;;;;;2090799;28;20024;-71
2022/10/14 02:24:43;;;;;;;18.58;16.27;;;15.40;99.90;;;;;;2091267;28;20098;-72
2022/10/14 02:25:46;;;;;;;18.48;16.48;;;15.40;99.90;;;;;;2090258;28;20017;-72
2022/10/14 02:26:48;;;;;;;18.98;16.83;;;15.50;99.90;;;;;;2090890;28;20600;-71
2022/10/14 02:27:50;;;;;;;20.17;16.73;;;15.40;99.90;;;;;;2090710;28;20083;-72
2022/10/14 02:28:53;;;;;;;18.98;16.73;;;15.50;99.90;;;;;;2090641;28;20056;-72
2022/10/14 02:29:56;;;;;;;17.45;15.48;;;15.40;99.90;;;;;;2091281;28;20067;-72
2022/10/14 02:31:03;;;;;;;17.40;15.60;;;15.50;99.90;;;;;;2090775;28;20480;-71
2022/10/14 02:32:07;;;;;;;18.40;15.90;;;15.50;99.90;;;;;;2090433;28;20385;-72
2022/10/14 02:33:08;;;;;;;13.93;12.57;;;15.50;99.90;;;;;;2089097;28;20028;-72
2022/10/14 02:34:13;;;;;;;16.27;14.60;;;15.50;99.90;;;;;;2092368;28;20074;-72
2022/10/14 02:35:16;;;;;;;18.05;16.23;;;15.50;99.90;;;;;;2092155;28;20111;-72
2022/10/14 02:36:21;;;;;;;17.00;15.40;;;15.50;99.90;;;;;;2090004;28;20027;-71
2022/10/14 02:37:24;;;;;;;17.60;15.82;;;15.50;99.90;;;;;;2092581;28;20456;-72
2022/10/14 02:38:25;;;;;;;17.20;15.63;;;15.50;99.90;;;;;;2093355;28;20409;-71
2022/10/14 02:39:37;;;;;;;17.05;15.32;;;15.60;99.90;;;;;;2090352;28;20411;-71
2022/10/14 02:40:43;;;;;;;18.05;16.25;;;15.50;99.90;;;;;;2091581;28;20366;-72
2022/10/14 02:41:44;;;;;;;17.98;15.20;;;15.50;99.90;;;;;;2091093;28;20025;-71
2022/10/14 02:42:44;;;;;;;17.17;15.38;;;15.50;99.90;;;;;;2090560;28;20032;-71
2022/10/14 02:43:45;;;;;;;18.27;16.42;;;15.50;99.90;;;;;;2090251;28;20021;-71
2022/10/14 02:44:57;;;;;;;18.55;16.13;;;15.50;99.90;;;;;;2091432;28;20137;-71
2022/10/14 02:46:01;;;;;;;17.70;15.73;;;15.50;99.90;;;;;;2091499;28;20122;-71
2022/10/14 02:47:02;;;;;;;16.42;14.82;;;15.50;99.90;;;;;;2091857;28;20485;-72
2022/10/14 02:48:04;;;;;;;19.33;15.77;;;15.50;99.90;;;;;;2090518;28;20035;-72
2022/10/14 02:49:04;;;;;;;16.30;14.70;;;15.50;99.90;;;;;;2089997;28;21499;-71
2022/10/14 02:50:06;;;;;;;17.13;15.43;;;15.50;99.90;;;;;;2091185;28;20037;-72
2022/10/14 02:51:06;;;;;;;17.45;15.75;;;15.50;99.90;;;;;;2089622;28;20024;-71
2022/10/14 02:52:07;;;;;;;17.00;15.30;;;15.50;99.90;;;;;;2091784;28;20115;-71
2022/10/14 02:53:11;;;;;;;16.65;14.95;;;15.50;99.90;;;;;;2089075;28;20063;-72
2022/10/14 02:54:12;;;;;;;14.27;13.05;;;15.50;99.90;;;;;;2089614;28;20074;-72
2022/10/14 02:55:13;;;;;;;16.42;14.52;;;15.50;99.90;;;;;;2091753;28;20029;-71
2022/10/14 02:56:16;;;;;;;16.80;15.07;;;15.50;99.90;;;;;;2089978;28;20067;-71
2022/10/14 02:57:17;;;;;;;16.10;14.15;;;15.50;99.90;;;;;;2091220;28;20051;-72
2022/10/14 02:58:17;;;;;;;14.98;13.57;;;15.50;99.90;;;;;;2089269;28;20133;-72
2022/10/14 02:59:18;;;;;;;16.52;14.77;;;15.50;99.90;;;;;;2090345;28;20079;-71
2022/10/14 03:00:19;;;;;;;14.35;13.07;;;15.50;99.90;;;;;;2091124;28;20023;-72
2022/10/14 03:01:19;;;;;;;16.10;14.50;;;15.50;99.90;;;;;;2090553;28;20032;-71
2022/10/14 03:02:20;;;;;;;15.85;14.35;;;15.50;99.90;;;;;;2091959;28;20079;-71
2022/10/14 03:03:21;;;;;;;14.45;13.02;;;15.50;99.90;;;;;;2089118;28;20017;-71
2022/10/14 03:04:21;;;;;;;16.25;14.68;;;15.50;99.90;;;;;;2090961;28;20947;-71
2022/10/14 03:05:22;;;;;;;15.80;14.35;;;15.50;99.90;;;;;;2091432;28;20028;-71
2022/10/14 03:06:22;;;;;;;16.35;14.75;;;15.50;99.90;;;;;;2092319;28;20025;-72
2022/10/14 03:07:24;;;;;;;14.70;13.35;;;15.50;99.90;;;;;;2091678;28;20473;-71
2022/10/14 03:08:25;;;;;;;15.88;14.43;;;15.50;99.90;;;;;;2089483;28;20563;-72
2022/10/14 03:09:25;;;;;;;15.48;13.98;;;15.50;99.90;;;;;;2093408;28;20462;-71
2022/10/14 03:10:26;;;;;;;16.17;14.68;;;15.50;99.90;;;;;;2088450;28;20016;-71
2022/10/14 03:11:26;;;;;;;14.02;12.73;;;15.50;99.90;;;;;;2090097;28;20028;-71
2022/10/14 03:12:27;;;;;;;15.25;13.75;;;15.50;99.90;;;;;;2091965;28;20036;-72
2022/10/14 03:13:28;;;;;;;15.38;13.98;;;15.50;99.90;;;;;;2090339;28;20451;-71
2022/10/14 03:14:28;;;;;;;15.80;14.18;;;15.50;99.90;;;;;;2091051;28;20021;-71
2022/10/14 03:15:29;;;;;;;14.30;12.95;;;15.50;99.90;;;;;;2089431;28;20029;-71
2022/10/14 03:16:29;;;;;;;15.40;13.90;;;15.50;99.90;;;;;;2090295;28;20023;-71
2022/10/14 03:17:30;;;;;;;15.57;13.98;;;15.50;99.90;;;;;;2092281;28;20013;-71
2022/10/14 03:18:30;;;;;;;15.27;13.85;;;15.50;99.90;;;;;;2091581;28;20071;-71
2022/10/14 03:19:31;;;;;;;14.80;13.27;;;15.50;99.90;;;;;;2090594;28;20131;-71
2022/10/14 03:20:31;;;;;;;14.82;13.20;;;15.50;99.90;;;;;;2091210;28;20028;-71
2022/10/14 03:21:32;;;;;;;14.75;13.23;;;15.50;99.90;;;;;;2090349;28;20017;-72
2022/10/14 03:22:33;;;;;;;14.95;13.50;;;15.50;99.90;;;;;;2091457;28;20116;-71
2022/10/14 03:23:33;;;;;;;13.00;11.80;;;15.50;99.90;;;;;;2091213;28;20029;-72
2022/10/14 03:24:34;;;;;;;16.02;14.52;;;15.50;99.90;;;;;;2091974;28;20034;-71
2022/10/14 03:25:34;;;;;;;16.27;14.73;;;15.50;99.90;;;;;;2093593;28;20480;-72
2022/10/14 03:26:35;;;;;;;15.18;13.75;;;15.50;99.90;;;;;;2094186;28;20385;-71
2022/10/14 03:27:35;;;;;;;14.93;13.52;;;15.50;99.90;;;;;;2089214;28;20044;-71
2022/10/14 03:28:36;;;;;;;14.98;13.38;;;15.50;99.90;;;;;;2092738;28;20506;-71
2022/10/14 03:29:36;;;;;;;15.13;13.70;;;15.50;99.90;;;;;;2093921;28;20028;-72
2022/10/14 03:30:37;;;;;;;13.70;12.50;;;15.50;99.90;;;;;;2089167;28;20112;-72
2022/10/14 03:31:37;;;;;;;15.35;13.95;;;15.50;99.90;;;;;;2092863;28;20040;-72
2022/10/14 03:32:38;;;;;;;15.40;13.93;;;15.60;99.90;;;;;;2085558;28;20037;-72
2022/10/14 03:33:39;;;;;;;15.27;13.88;;;15.50;99.90;;;;;;2088870;28;20033;-72
2022/10/14 03:34:39;;;;;;;14.88;13.52;;;15.50;99.90;;;;;;2090723;28;20095;-72
2022/10/14 03:35:40;;;;;;;16.98;14.98;;;15.50;99.90;;;;;;2089978;28;20031;-72
2022/10/14 03:36:41;;;;;;;14.98;13.57;;;15.50;99.90;;;;;;2089661;28;20021;-72
2022/10/14 03:37:41;;;;;;;16.20;14.70;;;15.50;99.90;;;;;;2089588;28;20116;-72
2022/10/14 03:38:42;;;;;;;16.65;15.15;;;15.50;99.90;;;;;;2088492;28;20028;-72
2022/10/14 03:39:43;;;;;;;16.05;14.45;;;15.50;99.90;;;;;;2090077;28;20029;-72
2022/10/14 03:40:44;;;;;;;16.33;14.73;;;15.50;99.90;;;;;;2092396;28;21723;-72
2022/10/14 03:41:44;;;;;;;15.18;13.77;;;15.50;99.90;;;;;;2091384;28;20254;-72
2022/10/14 03:42:45;;;;;;;15.50;14.10;;;15.50;99.90;;;;;;2091739;28;20021;-72
2022/10/14 03:43:45;;;;;;;16.10;14.50;;;15.50;99.90;;;;;;2088734;28;20063;-72
2022/10/14 03:44:46;;;;;;;15.57;14.15;;;15.50;99.90;;;;;;2090811;28;20812;-72
2022/10/14 03:45:46;;;;;;;15.38;13.98;;;15.50;99.90;;;;;;2089955;28;20337;-72
2022/10/14 03:46:47;;;;;;;17.00;15.23;;;15.50;99.90;;;;;;2077235;28;20452;-72
2022/10/14 03:47:47;;;;;;;16.83;15.32;;;15.50;99.90;;;;;;2083708;28;20433;-72
2022/10/14 03:48:48;;;;;;;14.80;13.32;;;15.50;99.90;;;;;;2089628;28;20095;-72
2022/10/14 03:49:48;;;;;;;15.20;13.85;;;15.50;99.90;;;;;;2091770;28;20118;-72
2022/10/14 03:50:49;;;;;;;16.05;14.55;;;15.50;99.90;;;;;;2090645;28;20033;-71
2022/10/14 03:51:50;;;;;;;16.63;15.10;;;15.50;99.90;;;;;;2090202;28;20029;-72
2022/10/14 03:52:50;;;;;;;16.85;15.43;;;15.60;99.90;;;;;;2088892;28;20041;-71
2022/10/14 03:53:51;;;;;;;16.85;15.25;;;15.60;99.90;;;;;;2091349;28;20438;-71
2022/10/14 03:54:51;;;;;;;17.38;15.40;;;15.50;99.90;;;;;;2088835;28;20029;-71
2022/10/14 03:55:52;;;;;;;16.13;14.73;;;15.50;99.90;;;;;;2089395;28;20043;-71
2022/10/14 03:56:52;;;;;;;15.55;14.05;;;15.50;99.90;;;;;;2088509;28;20036;-71
2022/10/14 03:57:53;;;;;;;16.15;14.57;;;15.50;99.90;;;;;;2090031;28;20518;-71
2022/10/14 03:58:53;;;;;;;14.85;13.45;;;15.50;99.90;;;;;;2089882;28;20595;-72
2022/10/14 03:59:54;;;;;;;16.40;14.82;;;15.50;99.90;;;;;;2091573;28;20120;-71
2022/10/14 04:00:54;;;;;;;17.17;15.55;;;15.50;99.90;;;;;;2088880;28;20029;-71
2022/10/14 04:01:55;;;;;;;16.33;14.73;;;15.50;99.90;;;;;;2089941;28;20025;-71
2022/10/14 04:02:55;;;;;;;16.35;14.70;;;15.50;99.90;;;;;;2087151;28;20041;-71
2022/10/14 04:03:56;;;;;;;16.92;15.43;;;15.50;99.90;;;;;;2089591;28;20024;-71
2022/10/14 04:04:57;;;;;;;15.75;14.30;;;15.50;99.90;;;;;;2088643;28;20029;-71
2022/10/14 04:05:58;;;;;;;14.93;13.55;;;15.50;99.90;;;;;;2089238;28;20025;-71
2022/10/14 04:06:58;;;;;;;15.50;14.10;;;15.50;99.90;;;;;;2090453;28;20543;-71
2022/10/14 04:07:59;;;;;;;15.48;14.10;;;15.50;99.90;;;;;;2090352;28;20108;-71
2022/10/14 04:09:00;;;;;;;15.52;14.10;;;15.50;99.90;;;;;;2089132;28;20080;-71
2022/10/14 04:10:00;;;;;;;14.38;13.07;;;15.50;99.90;;;;;;2089602;28;20040;-71
2022/10/14 04:11:01;;;;;;;14.70;13.40;;;15.50;99.90;;;;;;2089518;28;20108;-71
2022/10/14 04:12:02;;;;;;;14.88;13.38;;;15.50;99.90;;;;;;2089885;28;20033;-71
2022/10/14 04:13:02;;;;;;;14.25;12.95;;;15.50;99.90;;;;;;2086988;28;20028;-71
2022/10/14 04:14:03;;;;;;;14.90;13.60;;;15.50;99.90;;;;;;2088994;28;20107;-71
2022/10/14 04:15:04;;;;;;;14.10;12.80;;;15.50;99.90;;;;;;2089752;28;20032;-71
2022/10/14 04:16:09;;;;;;;13.10;11.93;;;15.50;99.90;;;;;;2090384;28;20048;-71
2022/10/14 04:17:09;;;;;;;14.80;13.40;;;15.50;99.90;;;;;;2089384;28;20362;-71
2022/10/14 04:18:10;;;;;;;12.88;11.77;;;15.50;99.90;;;;;;2087471;28;20044;-71
2022/10/14 04:19:10;;;;;;;13.55;12.45;;;15.50;99.90;;;;;;2090831;28;20055;-71
2022/10/14 04:20:11;;;;;;;14.88;12.68;;;15.50;99.90;;;;;;2091202;28;20021;-71
2022/10/14 04:21:12;;;;;;;16.70;12.77;;;15.50;99.90;;;;;;2090641;28;20021;-71
2022/10/14 04:22:12;;;;;;;13.55;12.35;;;15.50;99.90;;;;;;2089101;28;20028;-71
2022/10/14 04:23:13;;;;;;;13.40;12.13;;;15.50;99.90;;;;;;2090235;28;20055;-71
2022/10/14 04:24:14;;;;;;;13.65;12.55;;;15.50;99.90;;;;;;2090106;28;20029;-71
2022/10/14 04:25:15;;;;;;;12.18;11.15;;;15.40;99.90;;;;;;2090019;28;20024;-71
2022/10/14 04:26:16;;;;;;;12.25;11.00;;;15.50;99.90;;;;;;2088170;28;20017;-71
2022/10/14 04:27:16;;;;;;;13.27;12.18;;;15.50;99.90;;;;;;2089914;28;20024;-71
2022/10/14 04:28:17;;;;;;;13.75;12.45;;;15.50;99.90;;;;;;2088649;28;20247;-71
2022/10/14 04:29:18;;;;;;;13.10;12.00;;;15.50;99.90;;;;;;2088538;28;20107;-72
2022/10/14 04:30:18;;;;;;;14.93;13.55;;;15.50;99.90;;;;;;2089372;28;20131;-71
2022/10/14 04:31:21;;;;;;;13.25;12.10;;;15.50;99.90;;;;;;2088759;28;20025;-71
2022/10/14 04:32:22;;;;;;;12.98;11.77;;;15.50;99.90;;;;;;2089801;28;20036;-71
2022/10/14 04:33:22;;;;;;;13.25;12.13;;;15.50;99.90;;;;;;2091484;28;20050;-71
2022/10/14 04:34:23;;;;;;;12.57;11.48;;;15.50;99.90;;;;;;2087788;28;20527;-71
2022/10/14 04:35:23;;;;;;;12.40;11.30;;;15.50;99.90;;;;;;2092623;28;20032;-71
2022/10/14 04:36:24;;;;;;;13.65;12.35;;;15.50;99.90;;;;;;2092457;28;20032;-71
2022/10/14 04:37:25;;;;;;;12.93;11.82;;;15.50;99.90;;;;;;2092028;28;20041;-71
2022/10/14 04:38:26;;;;;;;12.60;11.25;;;15.50;99.90;;;;;;2089356;28;20384;-72
2022/10/14 04:39:26;;;;;;;13.05;11.77;;;15.50;99.90;;;;;;2088926;28;20020;-71
2022/10/14 04:40:27;;;;;;;12.75;11.65;;;15.60;99.90;;;;;;2089146;28;20025;-71
2022/10/14 04:41:28;;;;;;;13.43;12.18;;;15.50;99.90;;;;;;2089122;28;20082;-71
2022/10/14 04:42:28;;;;;;;11.45;10.45;;;15.50;99.90;;;;;;2090337;28;20111;-71
2022/10/14 04:43:29;;;;;;;12.07;10.88;;;15.50;99.90;;;;;;2088788;28;20024;-71
2022/10/14 04:44:29;;;;;;;12.90;11.80;;;15.50;99.90;;;;;;2089256;28;20028;-71
2022/10/14 04:45:31;;;;;;;10.98;10.05;;;15.50;99.90;;;;;;2089231;28;20086;-71
2022/10/14 04:46:32;;;;;;;12.85;11.70;;;15.50;99.90;;;;;;2089217;28;20087;-71
2022/10/14 04:47:32;;;;;;;12.23;11.10;;;15.50;99.90;;;;;;2090742;28;20103;-71
2022/10/14 04:48:33;;;;;;;12.68;11.48;;;15.50;99.90;;;;;;2088040;28;20111;-71
2022/10/14 04:49:33;;;;;;;12.30;11.25;;;15.50;99.90;;;;;;2089304;28;20021;-71
2022/10/14 04:50:34;;;;;;;11.80;10.85;;;15.50;99.90;;;;;;2090446;28;20055;-71
2022/10/14 04:51:34;;;;;;;11.88;10.88;;;15.50;99.90;;;;;;2088355;28;20376;-71
2022/10/14 04:52:35;;;;;;;13.40;11.07;;;15.50;99.90;;;;;;2090538;28;20017;-71
2022/10/14 04:53:36;;;;;;;12.18;11.13;;;15.50;99.90;;;;;;2089363;28;20032;-71
2022/10/14 04:54:36;;;;;;;11.77;10.75;;;15.50;99.90;;;;;;2086284;28;20051;-72
2022/10/14 04:55:37;;;;;;;12.57;11.48;;;15.50;99.90;;;;;;2089190;28;20538;-71
2022/10/14 04:56:37;;;;;;;12.57;11.27;;;15.50;99.90;;;;;;2089598;28;20687;-71
2022/10/14 04:57:42;;;;;;;12.40;11.20;;;15.50;99.90;;;;;;2092503;28;20051;-71
2022/10/14 04:58:43;;;;;;;11.80;10.70;;;15.50;99.90;;;;;;2090589;28;20471;-71
2022/10/14 04:59:46;;;;;;;12.25;11.25;;;15.50;99.90;;;;;;2089228;28;20619;-71
2022/10/14 05:00:47;;;;;;;13.27;11.15;;;15.50;99.90;;;;;;2090614;28;20032;-71
2022/10/14 05:01:47;;;;;;;12.43;11.35;;;15.50;99.90;;;;;;2089972;28;20048;-71
2022/10/14 05:02:48;;;;;;;11.43;10.40;;;15.50;99.90;;;;;;2090485;28;20023;-71
2022/10/14 05:03:50;;;;;;;10.75;9.75;;;15.50;99.90;;;;;;2088784;28;20025;-72
2022/10/14 05:04:50;;;;;;;12.07;10.98;;;15.50;99.90;;;;;;2089104;28;20144;-71
2022/10/14 05:05:51;;;;;;;11.80;10.65;;;15.50;99.90;;;;;;2090019;28;20025;-71
2022/10/14 05:06:51;;;;;;;12.55;11.45;;;15.60;99.90;;;;;;2090999;28;20500;-71
2022/10/14 05:07:52;;;;;;;12.77;11.68;;;15.60;99.90;;;;;;2090698;28;20025;-71
2022/10/14 05:08:52;;;;;;;10.73;9.82;;;15.60;99.90;;;;;;2089528;28;20099;-71
2022/10/14 05:09:53;;;;;;;11.77;10.68;;;15.60;99.90;;;;;;2089232;28;20052;-71
2022/10/14 05:10:53;;;;;;;10.75;9.63;;;15.60;99.90;;;;;;2088723;28;20032;-71
2022/10/14 05:11:54;;;;;;;10.85;9.95;;;15.60;99.90;;;;;;2089607;28;20040;-71
2022/10/14 05:12:55;;;;;;;12.43;11.27;;;15.60;99.90;;;;;;2090358;28;20099;-71
2022/10/14 05:13:56;;;;;;;13.10;11.23;;;15.60;99.90;;;;;;2087978;28;20085;-72
2022/10/14 05:14:57;;;;;;;12.45;11.25;;;15.60;99.90;;;;;;2091233;28;20036;-71
2022/10/14 05:15:57;;;;;;;9.27;8.57;;;15.60;99.90;;;;;;2088975;28;20125;-71
2022/10/14 05:16:58;;;;;;;12.32;11.10;;;15.60;99.90;;;;;;2088938;28;20033;-71
2022/10/14 05:17:59;;;;;;;12.10;10.95;;;15.60;99.90;;;;;;2089535;28;20029;-71
2022/10/14 05:18:59;;;;;;;11.25;10.35;;;15.60;99.90;;;;;;2090769;28;20731;-71
2022/10/14 05:20:00;;;;;;;12.05;11.05;;;15.60;99.90;;;;;;2090635;28;20369;-71
2022/10/14 05:21:00;;;;;;;12.13;11.07;;;15.60;99.90;;;;;;2088801;28;20044;-71
2022/10/14 05:22:01;;;;;;;11.48;10.48;;;15.60;99.90;;;;;;2091134;28;20106;-71
2022/10/14 05:23:01;;;;;;;12.05;10.95;;;15.60;99.90;;;;;;2093014;28;20093;-71
2022/10/14 05:24:02;;;;;;;11.88;10.77;;;15.60;99.90;;;;;;2089024;28;20100;-71
2022/10/14 05:25:03;;;;;;;12.25;11.23;;;15.60;99.90;;;;;;2093043;28;20121;-71
2022/10/14 05:26:04;;;;;;;11.80;10.80;;;15.60;99.90;;;;;;2091628;28;20029;-72